createdAt,value
2024-02-04T00:01:15.945Z,10.55
2024-02-04T00:03:50.078Z,11.68
2024-02-04T00:06:22.269Z,12.30
2024-02-04T00:08:55.053Z,10.40
2024-02-04T00:11:26.093Z,10.68
2024-02-04T00:13:58.266Z,12.90
2024-02-04T00:16:36.582Z,10.10
2024-02-04T00:19:10.713Z,10.25
2024-02-04T00:21:41.514Z,9.80
2024-02-04T00:24:12.292Z,10.90
2024-02-04T00:26:42.920Z,9.55
2024-02-04T00:29:13.550Z,9.80
2024-02-04T00:31:46.603Z,9.13
2024-02-04T00:34:20.083Z,8.77
2024-02-04T00:36:50.900Z,11.23
2024-02-04T00:39:22.043Z,12.00
2024-02-04T00:41:52.874Z,11.20
2024-02-04T00:44:23.764Z,11.80
2024-02-04T00:46:54.383Z,11.93
2024-02-04T00:49:27.959Z,9.57
2024-02-04T00:51:59.198Z,10.13
2024-02-04T00:54:29.890Z,12.43
2024-02-04T00:57:01.518Z,11.65
2024-02-04T00:59:33.488Z,12.27
2024-02-04T01:02:12.929Z,13.65
2024-02-04T01:04:46.922Z,13.77
2024-02-04T01:07:17.743Z,10.05
2024-02-04T01:09:55.374Z,11.13
2024-02-04T01:12:27.033Z,9.98
2024-02-04T01:14:58.117Z,12.98
2024-02-04T01:17:29.039Z,10.77
2024-02-04T01:20:02.479Z,10.75
2024-02-04T01:22:33.340Z,15.25
2024-02-04T01:25:04.401Z,24.30
2024-02-04T01:27:35.620Z,23.17
2024-02-04T01:30:07.652Z,20.85
2024-02-04T01:32:40.123Z,22.75
2024-02-04T01:35:13.981Z,21.50
2024-02-04T01:37:45.361Z,14.00
2024-02-04T01:40:16.990Z,14.25
2024-02-04T01:42:47.786Z,9.55
2024-02-04T01:45:18.604Z,8.70
2024-02-04T01:47:49.932Z,11.25
2024-02-04T01:50:23.708Z,9.75
2024-02-04T01:52:56.609Z,9.35
2024-02-04T01:55:28.057Z,11.48
2024-02-04T01:57:59.864Z,11.52
2024-02-04T02:00:30.663Z,9.52
2024-02-04T02:03:03.263Z,11.13
2024-02-04T02:05:37.881Z,12.00
2024-02-04T02:08:10.521Z,10.30
2024-02-04T02:10:44.370Z,8.77
2024-02-04T02:13:24.775Z,13.20
2024-02-04T02:16:01.026Z,12.07
2024-02-04T02:18:37.664Z,8.40
2024-02-04T02:21:31.149Z,9.85
2024-02-04T02:24:14.252Z,10.60
2024-02-04T02:26:50.472Z,11.80
2024-02-04T02:29:21.322Z,11.02
2024-02-04T02:31:52.205Z,16.17
2024-02-04T02:34:34.577Z,13.30
2024-02-04T02:37:17.384Z,13.70
2024-02-04T02:39:59.870Z,10.38
2024-02-04T02:42:35.038Z,11.82
2024-02-04T02:45:06.940Z,12.20
2024-02-04T02:47:38.489Z,11.43
2024-02-04T02:50:11.431Z,9.90
2024-02-04T02:52:42.223Z,11.93
2024-02-04T02:55:13.159Z,9.57
2024-02-04T02:57:46.769Z,12.00
2024-02-04T03:00:18.754Z,12.73
2024-02-04T03:02:50.147Z,12.63
2024-02-04T03:05:22.139Z,9.77
2024-02-04T03:07:54.216Z,12.48
2024-02-04T03:10:25.020Z,11.98
2024-02-04T03:12:58.579Z,11.68
2024-02-04T03:15:29.493Z,13.05
2024-02-04T03:18:03.485Z,11.43
2024-02-04T03:20:34.455Z,15.18
2024-02-04T03:23:08.506Z,11.27
2024-02-04T03:25:42.031Z,12.45
2024-02-04T03:28:15.805Z,11.93
2024-02-04T03:30:49.770Z,10.02
2024-02-04T03:33:21.663Z,9.85
2024-02-04T03:35:52.866Z,10.25
2024-02-04T03:38:23.865Z,11.25
2024-02-04T03:40:56.444Z,10.48
2024-02-04T03:43:29.899Z,10.63
2024-02-04T03:46:01.321Z,10.88
2024-02-04T03:48:32.822Z,11.27
2024-02-04T03:51:04.606Z,12.38
2024-02-04T03:53:54.252Z,10.90
2024-02-04T03:56:34.200Z,9.75
2024-02-04T03:59:10.477Z,9.82
2024-02-04T04:01:44.854Z,10.43
2024-02-04T04:06:53.644Z,13.23
2024-02-04T04:09:25.138Z,11.52
2024-02-04T04:12:06.840Z,12.13
2024-02-04T04:14:50.378Z,12.07
2024-02-04T04:17:22.828Z,11.23
2024-02-04T04:19:53.850Z,9.48
2024-02-04T04:22:24.757Z,11.93
2024-02-04T04:24:55.735Z,12.60
2024-02-04T04:27:26.896Z,11.07
2024-02-04T04:30:00.640Z,9.48
2024-02-04T04:40:34.438Z,12.65
2024-02-04T04:53:57.943Z,9.65
2024-02-04T04:56:32.586Z,9.77
2024-02-04T04:59:07.095Z,12.35
2024-02-04T05:01:52.565Z,13.13
2024-02-04T05:04:34.857Z,11.20
2024-02-04T05:07:08.231Z,14.15
2024-02-04T05:19:57.821Z,10.77
2024-02-04T05:22:32.742Z,12.07
2024-02-04T05:25:12.470Z,13.82
2024-02-04T05:28:20.010Z,12.10
2024-02-04T05:30:59.606Z,10.30
2024-02-04T05:34:02.029Z,13.07
2024-02-04T05:36:43.368Z,23.45
2024-02-04T05:39:38.942Z,13.63
2024-02-04T05:42:19.138Z,12.98
2024-02-04T05:44:53.414Z,11.30
2024-02-04T05:58:29.041Z,12.05
2024-02-04T06:04:21.179Z,15.70
2024-02-04T06:07:02.825Z,9.55
2024-02-04T06:09:35.031Z,13.30
2024-02-04T06:12:13.460Z,11.27
2024-02-04T06:14:44.371Z,13.07
2024-02-04T06:17:33.308Z,13.07
2024-02-04T06:20:05.814Z,13.60
2024-02-04T06:33:43.778Z,16.15
2024-02-04T06:36:35.534Z,10.18
2024-02-04T06:39:09.927Z,12.90
2024-02-04T06:41:41.080Z,10.85
2024-02-04T06:44:13.452Z,10.90
2024-02-04T06:46:47.942Z,14.23
2024-02-04T06:49:20.255Z,10.77
2024-02-04T06:52:24.043Z,10.02
2024-02-04T06:55:30.903Z,13.80
2024-02-04T06:58:59.303Z,12.10
2024-02-04T07:05:06.510Z,15.07
2024-02-04T07:08:32.016Z,10.07
2024-02-04T07:11:57.930Z,20.30
2024-02-04T07:14:40.290Z,15.30
2024-02-04T07:17:16.637Z,26.88
2024-02-04T07:19:53.117Z,18.83
2024-02-04T07:22:32.704Z,20.83
2024-02-04T07:25:14.036Z,20.75
2024-02-04T07:27:58.190Z,18.13
2024-02-04T07:30:50.521Z,18.77
2024-02-04T07:33:24.332Z,19.77
2024-02-04T07:36:00.524Z,14.70
2024-02-04T07:38:35.837Z,14.18
2024-02-04T07:41:13.262Z,22.15
2024-02-04T07:43:46.935Z,16.15
2024-02-04T07:46:23.876Z,17.27
2024-02-04T07:48:55.729Z,16.92
2024-02-04T07:51:26.968Z,18.85
2024-02-04T07:53:58.255Z,17.88
2024-02-04T07:56:29.156Z,18.02
2024-02-04T07:59:19.392Z,15.90
2024-02-04T08:01:58.131Z,17.55
2024-02-04T08:04:45.695Z,15.20
2024-02-04T08:07:24.260Z,16.38
2024-02-04T08:09:56.415Z,18.15
2024-02-04T08:12:27.265Z,14.50
2024-02-04T08:14:58.304Z,17.27
2024-02-04T08:17:32.391Z,14.68
2024-02-04T08:20:05.653Z,15.68
2024-02-04T08:22:37.154Z,11.57
2024-02-04T08:25:11.973Z,12.68
2024-02-04T08:27:42.911Z,13.75
2024-02-04T08:30:14.865Z,13.88
2024-02-04T08:32:49.684Z,17.50
2024-02-04T08:35:20.644Z,20.83
2024-02-04T08:37:51.415Z,18.33
2024-02-04T08:40:22.468Z,20.90
2024-02-04T08:42:53.330Z,12.85
2024-02-04T08:45:24.141Z,13.57
2024-02-04T08:47:58.090Z,15.30
2024-02-04T08:50:29.053Z,12.13
2024-02-04T08:52:59.847Z,15.82
2024-02-04T08:55:30.897Z,16.83
2024-02-04T08:58:06.101Z,11.25
2024-02-04T09:00:37.075Z,11.80
2024-02-04T09:03:10.586Z,18.05
2024-02-04T09:05:41.367Z,14.07
2024-02-04T09:08:12.327Z,16.15
2024-02-04T09:10:43.406Z,15.38
2024-02-04T09:13:14.291Z,18.90
2024-02-04T09:15:45.304Z,15.85
2024-02-04T09:18:18.866Z,18.98
2024-02-04T09:20:49.945Z,16.23
2024-02-04T09:23:21.537Z,20.83
2024-02-04T09:25:52.819Z,15.63
2024-02-04T09:28:39.893Z,24.35
2024-02-04T09:31:13.443Z,14.35
2024-02-04T09:33:48.258Z,21.63
2024-02-04T09:36:19.836Z,22.38
2024-02-04T09:39:09.263Z,14.45
2024-02-04T09:41:44.116Z,20.58
2024-02-04T09:44:19.050Z,25.05
2024-02-04T09:46:53.416Z,16.48
2024-02-04T09:49:27.818Z,17.15
2024-02-04T09:52:00.687Z,18.90
2024-02-04T09:54:40.331Z,15.68
2024-02-04T09:57:15.297Z,19.90
2024-02-04T09:59:48.640Z,12.35
2024-02-04T10:02:22.767Z,13.30
2024-02-04T10:08:53.315Z,18.48
2024-02-04T10:11:25.194Z,13.57
2024-02-04T10:13:56.384Z,18.80
2024-02-04T10:16:31.457Z,19.38
2024-02-04T10:19:02.736Z,9.70
2024-02-04T10:21:34.717Z,13.18
2024-02-04T10:24:11.239Z,11.60
2024-02-04T10:26:45.012Z,17.15
2024-02-04T10:29:19.174Z,12.50
2024-02-04T10:31:59.044Z,14.77
2024-02-04T10:34:42.194Z,16.30
2024-02-04T10:37:16.038Z,16.65
2024-02-04T10:39:49.818Z,13.90
2024-02-04T10:42:24.772Z,13.40
2024-02-04T10:44:57.519Z,16.35
2024-02-04T10:47:34.910Z,26.13
2024-02-04T10:50:19.593Z,15.88
2024-02-04T10:52:52.296Z,17.50
2024-02-04T10:55:33.427Z,19.98
2024-02-04T10:58:10.711Z,17.30
2024-02-04T11:01:53.244Z,13.00
2024-02-04T11:05:17.995Z,18.10
2024-02-04T11:08:29.972Z,15.77
2024-02-04T11:11:04.859Z,18.40
2024-02-04T11:14:11.550Z,25.40
2024-02-04T11:17:16.569Z,18.80
2024-02-04T11:20:10.257Z,21.23
2024-02-04T11:23:50.426Z,15.52
2024-02-04T11:26:34.253Z,21.65
2024-02-04T11:29:08.200Z,16.50
2024-02-04T11:31:39.688Z,19.65
2024-02-04T11:34:12.647Z,17.35
2024-02-04T11:36:44.597Z,19.25
2024-02-04T11:39:19.909Z,22.40
2024-02-04T11:41:53.455Z,29.33
2024-02-04T11:44:28.194Z,12.35
2024-02-04T11:47:00.125Z,16.73
2024-02-04T11:49:31.770Z,20.45
2024-02-04T11:52:05.166Z,24.95
2024-02-04T11:54:39.227Z,20.52
2024-02-04T11:57:13.304Z,24.60
2024-02-04T11:59:44.632Z,18.13
2024-02-04T12:02:16.288Z,17.60
2024-02-04T12:04:48.926Z,18.52
2024-02-04T12:07:20.499Z,21.20
2024-02-04T12:09:52.373Z,21.65
2024-02-04T12:12:27.241Z,19.20
2024-02-04T12:14:58.412Z,21.92
2024-02-04T12:17:29.638Z,14.15
2024-02-04T12:20:00.839Z,16.02
2024-02-04T12:22:32.029Z,27.50
2024-02-04T12:25:03.460Z,19.90
2024-02-04T12:27:41.077Z,19.77
2024-02-04T12:30:13.811Z,16.80
2024-02-04T12:32:44.616Z,22.73
2024-02-04T12:35:18.865Z,18.67
2024-02-04T12:37:55.412Z,16.23
2024-02-04T12:40:26.938Z,15.45
2024-02-04T12:43:06.261Z,16.27
2024-02-04T12:45:38.607Z,15.95
2024-02-04T12:48:10.512Z,17.80
2024-02-04T12:50:43.835Z,19.35
2024-02-04T12:53:22.790Z,13.27
2024-02-04T12:56:02.366Z,13.88
2024-02-04T12:58:48.222Z,17.95
2024-02-04T13:01:24.468Z,20.67
2024-02-04T13:04:03.060Z,22.85
2024-02-04T13:06:34.993Z,16.15
2024-02-04T13:09:11.108Z,23.38
2024-02-04T13:11:42.338Z,19.00
2024-02-04T13:14:19.426Z,17.63
2024-02-04T13:16:50.301Z,15.82
2024-02-04T13:19:24.269Z,15.65
2024-02-04T13:21:57.866Z,18.60
2024-02-04T13:24:28.850Z,25.92
2024-02-04T13:27:02.278Z,18.02
2024-02-04T13:29:38.724Z,27.52
2024-02-04T13:32:10.485Z,18.02
2024-02-04T13:34:41.698Z,18.23
2024-02-04T13:37:20.055Z,23.05
2024-02-04T13:40:02.108Z,26.08
2024-02-04T13:42:33.521Z,21.52
2024-02-04T13:45:08.130Z,18.98
2024-02-04T13:47:39.188Z,26.48
2024-02-04T13:50:15.738Z,20.45
2024-02-04T13:52:46.674Z,21.77
2024-02-04T13:55:17.655Z,20.55
2024-02-04T13:57:48.536Z,19.35
2024-02-04T14:00:22.365Z,19.77
2024-02-04T14:02:56.609Z,22.08
2024-02-04T14:05:30.500Z,25.73
2024-02-04T14:08:01.628Z,23.50
2024-02-04T14:10:33.089Z,19.02
2024-02-04T14:13:09.750Z,23.88
2024-02-04T14:15:45.337Z,23.10
2024-02-04T14:18:16.377Z,21.25
2024-02-04T14:20:47.443Z,25.13
2024-02-04T14:23:18.069Z,19.02
2024-02-04T14:25:49.461Z,25.08
2024-02-04T14:28:21.112Z,16.30
2024-02-04T14:30:58.312Z,22.00
2024-02-04T14:33:30.474Z,23.77
2024-02-04T14:36:01.777Z,22.00
2024-02-04T14:38:32.412Z,17.98
2024-02-04T14:41:03.291Z,27.88
2024-02-04T14:43:34.060Z,20.70
2024-02-04T14:46:08.238Z,17.67
2024-02-04T14:48:43.104Z,24.45
2024-02-04T14:51:15.228Z,21.88
2024-02-04T14:53:46.077Z,23.27
2024-02-04T14:56:18.572Z,19.08
2024-02-04T14:58:49.199Z,22.80
2024-02-04T15:01:22.959Z,19.95
2024-02-04T15:03:54.246Z,22.15
2024-02-04T15:06:25.172Z,21.35
2024-02-04T15:08:55.871Z,17.70
2024-02-04T15:11:27.251Z,20.15
2024-02-04T15:13:59.447Z,24.77
2024-02-04T15:16:33.642Z,20.70
2024-02-04T15:19:10.235Z,19.95
2024-02-04T15:22:00.562Z,16.60
2024-02-04T15:25:16.554Z,20.75
2024-02-04T15:28:37.145Z,17.95
2024-02-04T15:31:25.214Z,28.20
2024-02-04T15:34:06.726Z,30.20
2024-02-04T15:36:38.083Z,24.80
2024-02-04T15:39:12.765Z,24.00
2024-02-04T15:41:47.000Z,26.83
2024-02-04T15:44:22.928Z,24.08
2024-02-04T15:46:57.639Z,25.33
2024-02-04T15:49:35.762Z,20.05
2024-02-04T15:52:19.458Z,29.10
2024-02-04T15:54:58.794Z,21.77
2024-02-04T15:57:38.111Z,22.08
2024-02-04T16:00:19.288Z,18.02
2024-02-04T16:02:53.636Z,26.05
2024-02-04T16:05:31.253Z,27.02
2024-02-04T16:08:04.833Z,32.60
2024-02-04T16:10:40.484Z,35.72
2024-02-04T16:13:14.882Z,31.88
2024-02-04T16:15:53.397Z,38.42
2024-02-04T16:18:55.160Z,34.05
2024-02-04T16:21:41.445Z,32.85
2024-02-04T16:24:15.277Z,33.33
2024-02-04T16:33:58.160Z,25.08
2024-02-04T16:36:42.171Z,24.40
2024-02-04T16:39:34.882Z,29.98
2024-02-04T16:42:10.642Z,29.98
2024-02-04T16:44:42.126Z,28.95
2024-02-04T16:47:25.705Z,27.98
2024-02-04T16:52:29.144Z,27.65
2024-02-04T16:54:44.159Z,30.27
2024-02-04T17:02:29.815Z,31.60
2024-02-04T17:05:05.384Z,32.85
2024-02-04T17:07:50.688Z,34.72
2024-02-04T17:10:30.741Z,30.30
2024-02-04T17:13:06.256Z,33.88
2024-02-04T17:18:31.710Z,36.20
2024-02-04T17:19:20.752Z,35.90
2024-02-04T17:22:00.514Z,28.77
2024-02-04T17:24:36.896Z,31.25
2024-02-04T17:27:18.836Z,31.23
2024-02-04T17:29:53.888Z,33.80
2024-02-04T17:32:43.461Z,27.50
2024-02-04T17:35:25.260Z,31.67
2024-02-04T17:37:58.782Z,27.23
2024-02-04T17:40:52.489Z,31.70
2024-02-04T17:43:29.641Z,24.90
2024-02-04T17:48:46.935Z,22.90
2024-02-04T17:51:29.682Z,21.08
2024-02-04T17:54:06.547Z,24.65
2024-02-04T17:56:41.488Z,23.73
2024-02-04T17:59:22.003Z,26.77
2024-02-04T18:02:27.801Z,23.63
2024-02-04T18:05:00.356Z,25.23
2024-02-04T18:07:32.867Z,29.98
2024-02-04T18:10:08.717Z,30.02
2024-02-04T18:12:43.271Z,28.00
2024-02-04T18:15:24.814Z,31.27
2024-02-04T18:17:59.216Z,30.52
2024-02-04T18:20:32.114Z,30.20
2024-02-04T18:23:26.790Z,28.45
2024-02-04T18:26:07.376Z,24.70
2024-02-04T18:29:03.239Z,31.63
2024-02-04T18:31:36.389Z,29.13
2024-02-04T18:34:09.985Z,28.75
2024-02-04T18:36:42.897Z,40.92
2024-02-04T18:39:18.068Z,58.75
2024-02-04T18:41:49.552Z,37.08
2024-02-04T18:44:31.339Z,30.23
2024-02-04T18:47:05.291Z,34.55
2024-02-04T18:49:36.473Z,35.53
2024-02-04T18:54:44.297Z,26.85
2024-02-04T18:57:23.445Z,33.22
2024-02-04T18:59:58.133Z,33.15
2024-02-04T19:02:36.072Z,34.88
2024-02-04T19:05:07.748Z,27.33
2024-02-04T19:07:48.867Z,31.02
2024-02-04T19:10:27.420Z,26.75
2024-02-04T19:20:05.028Z,27.80
2024-02-04T19:22:36.216Z,31.40
2024-02-04T19:25:11.707Z,28.05
2024-02-04T19:27:50.413Z,31.23
2024-02-04T19:30:24.556Z,36.67
2024-02-04T19:32:57.186Z,27.48
2024-02-04T19:35:33.906Z,25.50
2024-02-04T19:38:05.498Z,31.15
2024-02-04T19:40:36.859Z,31.63
2024-02-04T19:43:12.626Z,26.88
2024-02-04T19:45:46.355Z,29.85
2024-02-04T19:48:20.211Z,33.05
2024-02-04T19:50:54.555Z,24.40
2024-02-04T19:53:25.639Z,40.60
2024-02-04T19:56:01.945Z,35.60
2024-02-04T19:58:34.330Z,43.50
2024-02-04T20:01:05.816Z,38.70
2024-02-04T20:04:08.199Z,29.30
2024-02-04T20:07:46.629Z,36.60
2024-02-04T20:10:20.936Z,28.70
2024-02-04T20:13:01.854Z,31.50
2024-02-04T20:15:52.949Z,30.77
2024-02-04T20:18:42.465Z,37.22
2024-02-04T20:21:17.391Z,39.95
2024-02-04T20:23:55.984Z,33.22
2024-02-04T20:26:35.775Z,25.70
2024-02-04T20:29:16.867Z,30.08
2024-02-04T20:31:51.630Z,30.50
2024-02-04T20:34:27.764Z,30.15
2024-02-04T20:37:12.026Z,33.53
2024-02-04T20:39:50.741Z,38.75
2024-02-04T20:42:30.819Z,30.60
2024-02-04T20:45:03.990Z,33.67
2024-02-04T20:47:44.505Z,37.88
2024-02-04T20:50:19.971Z,39.63
2024-02-04T20:52:51.094Z,35.53
2024-02-04T20:55:26.272Z,29.00
2024-02-04T20:57:59.745Z,25.50
2024-02-04T21:00:35.030Z,30.33
2024-02-04T21:03:08.173Z,25.90
2024-02-04T21:05:43.691Z,30.20
2024-02-04T21:08:25.580Z,29.88
2024-02-04T21:11:07.298Z,33.05
2024-02-04T21:13:46.238Z,36.75
2024-02-04T21:16:25.205Z,31.35
2024-02-04T21:19:34.983Z,33.25
2024-02-04T21:22:25.497Z,38.90
2024-02-04T21:24:57.678Z,42.80
2024-02-04T21:27:33.801Z,58.70
2024-02-04T21:30:06.913Z,43.83
2024-02-04T21:32:37.869Z,39.15
2024-02-04T21:35:12.401Z,29.30
2024-02-04T21:37:43.339Z,37.50
2024-02-04T21:40:15.391Z,42.67
2024-02-04T21:42:48.835Z,39.53
2024-02-04T21:45:22.282Z,33.83
2024-02-04T21:47:53.368Z,25.52
2024-02-04T21:50:24.162Z,25.15
2024-02-04T21:52:55.793Z,29.60
2024-02-04T21:55:26.779Z,28.00
2024-02-04T21:58:00.163Z,35.38
2024-02-04T22:00:32.674Z,34.67
2024-02-04T22:03:03.710Z,27.33
2024-02-04T22:05:34.710Z,27.75
2024-02-04T22:08:05.406Z,31.33
2024-02-04T22:10:38.028Z,26.27
2024-02-04T22:13:15.067Z,26.75
2024-02-04T22:15:46.240Z,32.38
2024-02-04T22:18:17.454Z,25.40
2024-02-04T22:20:49.036Z,31.23
2024-02-04T22:23:21.720Z,31.80
2024-02-04T22:25:55.915Z,29.63
2024-02-04T22:28:32.034Z,27.15
2024-02-04T22:31:04.942Z,29.98
2024-02-04T22:33:35.824Z,28.48
2024-02-04T22:36:09.770Z,26.80
2024-02-04T22:38:40.743Z,23.77
2024-02-04T22:41:12.039Z,28.08
2024-02-04T22:43:45.453Z,31.02
2024-02-04T22:46:18.680Z,32.08
2024-02-04T22:48:49.809Z,32.22
2024-02-04T22:51:22.615Z,29.88
2024-02-04T22:53:54.523Z,22.85
2024-02-04T22:56:26.844Z,26.20
2024-02-04T22:59:01.345Z,22.23
2024-02-04T23:01:32.208Z,30.48
2024-02-04T23:04:03.294Z,30.42
2024-02-04T23:06:34.185Z,25.40
2024-02-04T23:09:05.004Z,31.65
2024-02-04T23:11:36.487Z,32.10
2024-02-04T23:14:10.461Z,29.40
2024-02-04T23:16:41.237Z,26.13
2024-02-04T23:19:12.912Z,25.00
2024-02-04T23:21:43.981Z,27.77
2024-02-04T23:24:14.640Z,27.70
2024-02-04T23:26:45.451Z,33.08
2024-02-04T23:29:18.962Z,22.80
2024-02-04T23:31:50.400Z,26.65
2024-02-04T23:34:21.128Z,26.27
2024-02-04T23:36:52.340Z,24.63
2024-02-04T23:39:23.064Z,20.67
2024-02-04T23:41:54.195Z,27.25
2024-02-04T23:44:28.197Z,28.27
2024-02-04T23:46:58.825Z,22.38
2024-02-04T23:49:29.644Z,21.83
2024-02-04T23:52:00.688Z,21.88
2024-02-04T23:54:31.396Z,24.63
2024-02-04T23:57:04.900Z,24.15
2024-02-04T23:59:38.275Z,23.73
